Time;durP1;ratioP1;P1;durP2;ratioP2;P2;SDS_P1;SDS_P2;PMS_P1;PMS_P2;Temp;Humidity;BMP_temperature;BMP_pressure;BME280_temperature;BME280_humidity;BME280_pressure;Samples;Min_cycle;Max_cycle;Signal;HPM_P1;HPM_P2
2022/03/13 00:02:16;;;;;;;16.95;10.23;;;5.90;43.70;;;;;;5028112;28;20026;-63
2022/03/13 00:04:43;;;;;;;17.08;9.75;;;5.80;43.70;;;;;;5017537;28;20049;-63
2022/03/13 00:07:16;;;;;;;18.80;11.02;;;5.80;43.80;;;;;;5033419;28;20048;-63
2022/03/13 00:09:45;;;;;;;15.30;9.82;;;5.70;43.90;;;;;;5032396;28;20108;-63
2022/03/13 00:12:14;;;;;;;17.98;9.77;;;5.70;43.90;;;;;;5033478;28;20362;-63
2022/03/13 00:14:42;;;;;;;18.50;10.25;;;5.70;43.80;;;;;;5034908;28;20047;-64
2022/03/13 00:17:07;;;;;;;17.67;10.00;;;5.70;44.00;;;;;;5033015;28;20152;-64
2022/03/13 00:19:33;;;;;;;19.40;10.68;;;5.60;44.00;;;;;;5028761;28;20524;-63
2022/03/13 00:21:58;;;;;;;20.27;10.02;;;5.60;44.10;;;;;;5013420;28;20048;-63
2022/03/13 00:24:24;;;;;;;17.45;9.73;;;5.50;44.00;;;;;;5016081;28;20044;-63
2022/03/13 00:26:54;;;;;;;17.25;9.52;;;5.50;44.00;;;;;;5032993;28;20401;-63
2022/03/13 00:29:20;;;;;;;15.45;9.70;;;5.50;44.20;;;;;;5032025;28;20463;-63
2022/03/13 00:31:46;;;;;;;20.00;10.20;;;5.50;44.20;;;;;;5032727;28;20033;-64
2022/03/13 00:34:11;;;;;;;18.67;10.82;;;5.40;44.40;;;;;;5031810;28;20640;-63
2022/03/13 00:36:37;;;;;;;17.33;10.30;;;5.40;44.30;;;;;;5032664;28;20152;-63
2022/03/13 00:39:03;;;;;;;23.10;11.05;;;5.30;44.60;;;;;;5029503;28;20031;-63
2022/03/13 00:41:29;;;;;;;19.38;10.68;;;5.30;44.60;;;;;;5013115;28;20121;-63
2022/03/13 00:43:55;;;;;;;18.52;11.32;;;5.30;44.90;;;;;;5012726;28;20536;-63
2022/03/13 00:46:20;;;;;;;19.20;10.38;;;5.20;44.90;;;;;;5031047;28;20038;-62
2022/03/13 00:48:46;;;;;;;19.50;10.57;;;5.20;44.90;;;;;;5031662;28;20036;-63
2022/03/13 00:51:11;;;;;;;19.25;10.77;;;5.20;45.00;;;;;;5031167;28;20036;-63
2022/03/13 00:53:38;;;;;;;18.88;11.07;;;5.10;45.10;;;;;;5032102;28;20473;-62
2022/03/13 00:56:04;;;;;;;17.85;10.05;;;5.10;45.20;;;;;;5018110;28;20384;-63
2022/03/13 00:58:30;;;;;;;18.23;10.27;;;5.10;45.30;;;;;;5032525;28;20531;-63
2022/03/13 01:00:55;;;;;;;18.05;10.90;;;5.00;45.30;;;;;;5030455;28;20041;-62
2022/03/13 01:03:36;;;;;;;20.13;10.88;;;5.00;45.50;;;;;;5031907;28;20053;-62
2022/03/13 01:06:03;;;;;;;19.00;11.15;;;5.00;45.80;;;;;;5018892;28;20354;-63
2022/03/13 01:08:29;;;;;;;20.70;11.63;;;5.00;45.80;;;;;;5032281;28;20079;-63
2022/03/13 01:10:55;;;;;;;18.77;9.32;;;4.90;45.80;;;;;;5030703;28;20026;-63
2022/03/13 01:13:21;;;;;;;17.17;10.52;;;4.90;45.80;;;;;;5031972;28;20032;-63
2022/03/13 01:15:54;;;;;;;17.98;10.48;;;4.90;45.80;;;;;;5028209;28;20443;-63
2022/03/13 01:18:19;;;;;;;19.98;10.48;;;4.90;45.90;;;;;;5032012;28;20101;-63
2022/03/13 01:20:47;;;;;;;15.52;10.15;;;4.80;46.00;;;;;;5029860;28;20026;-63
2022/03/13 01:23:14;;;;;;;19.48;10.75;;;4.80;46.10;;;;;;5032033;28;20473;-63
2022/03/13 01:25:39;;;;;;;16.33;10.27;;;4.80;46.00;;;;;;5030869;28;20050;-63
2022/03/13 01:28:05;;;;;;;16.98;9.90;;;4.70;46.50;;;;;;5030096;28;20046;-62
2022/03/13 01:30:30;;;;;;;20.63;10.23;;;4.70;46.00;;;;;;5030473;28;20083;-63
2022/03/13 01:32:56;;;;;;;19.40;10.30;;;4.60;46.20;;;;;;5031809;28;20029;-62
2022/03/13 01:35:24;;;;;;;18.42;10.23;;;4.60;45.90;;;;;;5030301;28;20338;-63
2022/03/13 01:37:51;;;;;;;16.70;10.02;;;4.60;46.10;;;;;;5029874;28;20030;-62
2022/03/13 01:40:20;;;;;;;19.63;10.88;;;4.50;46.60;;;;;;5030178;28;20026;-63
2022/03/13 01:42:47;;;;;;;19.27;10.52;;;4.40;46.00;;;;;;5029128;28;20120;-63
2022/03/13 01:45:16;;;;;;;21.40;10.55;;;4.40;46.30;;;;;;5014067;28;20044;-62
2022/03/13 01:47:42;;;;;;;20.02;10.77;;;4.30;46.30;;;;;;5027373;28;20025;-62
2022/03/13 01:50:09;;;;;;;20.45;11.65;;;4.30;46.90;;;;;;5030421;28;20355;-62
2022/03/13 01:52:37;;;;;;;18.77;10.98;;;4.30;46.30;;;;;;5031020;28;20025;-63
2022/03/13 01:55:03;;;;;;;16.77;10.88;;;4.20;46.30;;;;;;5022522;28;20036;-63
2022/03/13 01:57:29;;;;;;;22.30;12.38;;;4.20;46.30;;;;;;5024681;28;20040;-63
2022/03/13 01:59:57;;;;;;;19.13;10.73;;;4.20;46.70;;;;;;5022357;28;20109;-62
2022/03/13 02:02:25;;;;;;;19.00;10.82;;;4.20;46.40;;;;;;5024659;28;20441;-62
2022/03/13 02:04:53;;;;;;;15.73;10.63;;;4.10;46.40;;;;;;5024130;28;20030;-62
2022/03/13 02:07:20;;;;;;;21.83;11.20;;;4.20;46.40;;;;;;5028362;28;20045;-62
2022/03/13 02:09:46;;;;;;;17.50;10.68;;;4.10;46.40;;;;;;5031083;28;20202;-62
2022/03/13 02:12:12;;;;;;;15.07;10.15;;;4.10;46.40;;;;;;5032521;28;20512;-62
2022/03/13 02:14:38;;;;;;;23.25;11.77;;;4.00;46.40;;;;;;5030238;28;20063;-62
2022/03/13 02:17:04;;;;;;;20.50;11.60;;;4.00;46.70;;;;;;5031162;28;20021;-61
2022/03/13 02:19:30;;;;;;;18.58;11.05;;;4.00;46.60;;;;;;5016504;28;20495;-63
2022/03/13 02:21:58;;;;;;;17.05;10.00;;;3.90;46.60;;;;;;5030822;28;20467;-62
2022/03/13 02:24:25;;;;;;;14.10;8.80;;;3.90;46.60;;;;;;5027430;28;20029;-62
2022/03/13 02:27:03;;;;;;;17.40;9.93;;;3.90;46.50;;;;;;5031096;28;20091;-62
2022/03/13 02:29:30;;;;;;;18.67;10.85;;;3.90;46.60;;;;;;5029469;28;20033;-62
2022/03/13 02:31:58;;;;;;;18.63;10.02;;;3.80;46.60;;;;;;5030900;28;20232;-62
2022/03/13 02:34:24;;;;;;;19.10;10.95;;;3.80;46.70;;;;;;5026486;28;20542;-62
2022/03/13 02:36:50;;;;;;;18.33;10.25;;;3.80;46.60;;;;;;5030508;28;20401;-62
2022/03/13 02:39:16;;;;;;;18.10;10.00;;;3.80;46.60;;;;;;5018259;28;20489;-63
2022/03/13 02:41:42;;;;;;;18.10;10.95;;;3.80;46.70;;;;;;5011160;28;20064;-63
2022/03/13 02:44:09;;;;;;;18.70;9.90;;;3.80;46.80;;;;;;5026375;28;20025;-62
2022/03/13 02:46:55;;;;;;;20.88;10.68;;;3.80;46.80;;;;;;5030434;28;20038;-63
2022/03/13 02:49:23;;;;;;;17.48;10.23;;;3.70;46.80;;;;;;5028687;28;20497;-62
2022/03/13 02:51:51;;;;;;;20.17;10.73;;;3.70;46.80;;;;;;5030498;28;20064;-63
2022/03/13 02:54:17;;;;;;;17.55;10.45;;;3.70;46.80;;;;;;5029182;28;20029;-63
2022/03/13 02:56:45;;;;;;;19.63;11.02;;;3.70;47.00;;;;;;5030699;28;20032;-62
2022/03/13 02:59:12;;;;;;;19.38;10.38;;;3.70;46.90;;;;;;5029154;28;20113;-62
2022/03/13 03:01:38;;;;;;;19.83;10.48;;;3.60;47.00;;;;;;5030562;28;20063;-62
2022/03/13 03:04:05;;;;;;;15.15;10.15;;;3.60;46.90;;;;;;5028825;28;20042;-62
2022/03/13 03:06:32;;;;;;;18.98;10.23;;;3.60;47.10;;;;;;5031000;28;20120;-63
2022/03/13 03:09:03;;;;;;;19.55;11.25;;;3.50;46.90;;;;;;5029399;28;20152;-63
2022/03/13 03:11:34;;;;;;;20.90;10.98;;;3.60;47.00;;;;;;5033222;28;20036;-63
2022/03/13 03:14:02;;;;;;;18.10;9.38;;;3.50;47.00;;;;;;5034095;28;20461;-63
2022/03/13 03:16:27;;;;;;;21.45;10.65;;;3.50;47.00;;;;;;5018890;28;20060;-63
2022/03/13 03:18:53;;;;;;;19.92;9.73;;;3.50;46.90;;;;;;5033364;28;20491;-63
2022/03/13 03:21:18;;;;;;;17.25;10.35;;;3.50;47.10;;;;;;5034046;28;20032;-63
2022/03/13 03:23:43;;;;;;;18.42;10.68;;;3.40;47.10;;;;;;5032594;28;20052;-63
2022/03/13 03:26:09;;;;;;;18.75;11.27;;;3.50;47.00;;;;;;5034100;28;20038;-63
2022/03/13 03:28:34;;;;;;;23.48;12.30;;;3.40;47.50;;;;;;5032916;28;20025;-63
2022/03/13 03:31:00;;;;;;;18.85;10.30;;;3.40;47.30;;;;;;5033154;28;20105;-63
2022/03/13 03:33:27;;;;;;;14.98;9.00;;;3.30;47.20;;;;;;5032923;28;20037;-63
2022/03/13 03:35:52;;;;;;;22.10;10.57;;;3.30;47.30;;;;;;5034103;28;20025;-62
2022/03/13 03:38:18;;;;;;;19.15;10.43;;;3.30;47.30;;;;;;5023612;28;20044;-63
2022/03/13 03:40:44;;;;;;;20.35;11.82;;;3.30;47.40;;;;;;5014230;28;20473;-63
2022/03/13 03:43:09;;;;;;;20.60;11.23;;;3.20;47.40;;;;;;5027706;28;20029;-63
2022/03/13 03:45:35;;;;;;;20.40;11.07;;;3.30;47.50;;;;;;5020567;28;20080;-63
2022/03/13 03:48:00;;;;;;;20.75;11.30;;;3.20;47.60;;;;;;5025937;28;20033;-63
2022/03/13 03:50:26;;;;;;;22.75;10.68;;;3.20;47.60;;;;;;5032726;28;20037;-62
2022/03/13 03:52:55;;;;;;;23.45;12.00;;;3.20;47.60;;;;;;5027076;28;20032;-63
2022/03/13 03:55:21;;;;;;;17.20;10.48;;;3.20;47.60;;;;;;5033513;28;20025;-62
2022/03/13 03:57:46;;;;;;;19.33;10.73;;;3.10;47.70;;;;;;5032082;28;20026;-63
2022/03/13 04:00:12;;;;;;;21.40;12.30;;;3.10;47.60;;;;;;5033331;28;20124;-63
2022/03/13 04:02:39;;;;;;;17.63;10.65;;;3.10;47.70;;;;;;5024032;28;20477;-62
2022/03/13 04:05:05;;;;;;;20.08;10.75;;;3.20;47.80;;;;;;5033703;28;20028;-63
2022/03/13 04:07:30;;;;;;;21.73;11.65;;;3.10;47.80;;;;;;5031467;28;20048;-63
2022/03/13 04:09:57;;;;;;;18.08;10.55;;;3.10;47.80;;;;;;5033191;28;20033;-63
2022/03/13 04:12:22;;;;;;;20.17;11.60;;;3.10;47.90;;;;;;5031940;28;20067;-63
2022/03/13 04:14:48;;;;;;;20.55;10.40;;;3.10;47.80;;;;;;5038527;28;20026;-63
2022/03/13 04:17:13;;;;;;;20.02;11.32;;;3.10;48.00;;;;;;5022608;28;20029;-63
2022/03/13 04:19:39;;;;;;;19.38;11.50;;;3.00;47.90;;;;;;5032790;28;20048;-63
2022/03/13 04:22:04;;;;;;;20.55;10.77;;;3.10;47.90;;;;;;5032245;28;20039;-62
2022/03/13 04:24:30;;;;;;;18.85;10.65;;;3.10;47.70;;;;;;5028154;28;20033;-62
2022/03/13 04:26:56;;;;;;;21.02;11.18;;;3.10;47.70;;;;;;5032880;28;20045;-62
2022/03/13 04:29:23;;;;;;;20.17;10.60;;;3.10;47.90;;;;;;5030636;28;20029;-63
2022/03/13 04:31:50;;;;;;;18.60;10.85;;;3.00;47.80;;;;;;5031030;28;20025;-63
2022/03/13 04:34:16;;;;;;;21.48;11.25;;;3.00;47.80;;;;;;5016957;28;20083;-62
2022/03/13 04:36:43;;;;;;;24.08;10.88;;;3.10;47.90;;;;;;5033066;28;20037;-63
2022/03/13 04:39:09;;;;;;;22.08;11.05;;;3.00;48.00;;;;;;5018449;28;20029;-63
2022/03/13 04:41:37;;;;;;;18.30;10.13;;;3.00;47.90;;;;;;5031350;28;20079;-63
2022/03/13 04:44:04;;;;;;;21.20;10.27;;;3.00;47.90;;;;;;5031338;28;20033;-62
2022/03/13 04:46:30;;;;;;;22.27;10.85;;;3.00;48.10;;;;;;5032845;28;20041;-63
2022/03/13 04:48:57;;;;;;;20.65;11.27;;;3.00;48.00;;;;;;5018536;28;20462;-62
2022/03/13 04:51:22;;;;;;;20.50;11.10;;;3.00;48.00;;;;;;5028892;28;20037;-63
2022/03/13 04:53:48;;;;;;;19.48;10.43;;;3.00;48.00;;;;;;5030892;28;20487;-63
2022/03/13 04:56:13;;;;;;;19.65;10.90;;;3.00;48.00;;;;;;5032654;28;20041;-62
2022/03/13 04:58:39;;;;;;;19.40;10.88;;;3.00;47.90;;;;;;5030813;28;20465;-63
2022/03/13 05:01:04;;;;;;;24.20;11.90;;;3.00;48.00;;;;;;5031514;28;20029;-63
2022/03/13 05:03:33;;;;;;;20.45;10.32;;;3.00;48.10;;;;;;5029826;28;20057;-63
2022/03/13 05:05:59;;;;;;;18.17;10.07;;;3.00;48.00;;;;;;5032148;28;20388;-63
2022/03/13 05:08:26;;;;;;;19.63;10.43;;;3.00;48.00;;;;;;5030596;28;20029;-63
2022/03/13 05:10:52;;;;;;;20.30;11.10;;;2.90;48.00;;;;;;5031981;28;20067;-63
2022/03/13 05:13:18;;;;;;;21.63;11.65;;;2.90;48.00;;;;;;5030558;28;20025;-63
2022/03/13 05:15:45;;;;;;;20.92;10.73;;;2.90;47.90;;;;;;5019174;28;20062;-63
2022/03/13 05:18:12;;;;;;;19.95;11.13;;;3.00;48.10;;;;;;5021212;28;20060;-63
2022/03/13 05:20:38;;;;;;;19.58;11.40;;;2.90;48.00;;;;;;5011010;28;20068;-63
2022/03/13 05:23:05;;;;;;;18.95;10.15;;;3.00;48.00;;;;;;5025735;28;20044;-62
2022/03/13 05:25:35;;;;;;;16.55;9.95;;;3.00;48.00;;;;;;5031833;28;20465;-63
2022/03/13 05:28:02;;;;;;;18.75;10.40;;;3.00;48.20;;;;;;5031063;28;20033;-63
2022/03/13 05:30:28;;;;;;;19.48;10.48;;;3.00;48.10;;;;;;5030350;28;20108;-64
2022/03/13 05:32:54;;;;;;;20.60;9.90;;;3.00;48.10;;;;;;5025518;28;20069;-63
2022/03/13 05:35:20;;;;;;;18.35;10.02;;;3.00;48.20;;;;;;5011866;28;20112;-63
2022/03/13 05:37:45;;;;;;;21.65;11.18;;;3.00;48.00;;;;;;5012013;28;20105;-63
2022/03/13 05:40:13;;;;;;;20.17;10.68;;;3.00;48.10;;;;;;5020136;28;20032;-63
2022/03/13 05:42:44;;;;;;;18.20;10.32;;;3.00;48.20;;;;;;5030069;28;20026;-63
2022/03/13 05:45:11;;;;;;;19.00;10.27;;;3.00;48.20;;;;;;5030761;28;20117;-63
2022/03/13 05:48:06;;;;;;;17.95;10.32;;;3.00;48.10;;;;;;5029647;28;20034;-63
2022/03/13 05:50:32;;;;;;;20.15;11.18;;;3.00;48.20;;;;;;5030975;28;20037;-63
2022/03/13 05:52:59;;;;;;;19.02;10.15;;;3.10;48.30;;;;;;5029885;28;20055;-63
2022/03/13 05:55:25;;;;;;;18.05;10.63;;;3.20;48.30;;;;;;5031553;28;20033;-63
2022/03/13 05:57:52;;;;;;;20.02;10.77;;;3.10;48.30;;;;;;5029897;28;20025;-62
2022/03/13 06:00:20;;;;;;;21.05;9.98;;;3.20;48.20;;;;;;5027179;28;20030;-63
2022/03/13 06:02:47;;;;;;;19.33;10.23;;;3.20;48.10;;;;;;5014170;28;20108;-63
2022/03/13 06:05:16;;;;;;;20.15;10.23;;;3.20;48.20;;;;;;5018327;28;20029;-63
2022/03/13 06:07:41;;;;;;;21.88;10.38;;;3.20;48.10;;;;;;5014542;28;20041;-63
2022/03/13 06:10:08;;;;;;;20.33;10.85;;;3.20;48.00;;;;;;5031032;28;20021;-62
2022/03/13 06:12:34;;;;;;;19.58;11.23;;;3.20;48.10;;;;;;5029623;28;20108;-63
2022/03/13 06:15:01;;;;;;;20.70;10.45;;;3.20;48.10;;;;;;5031075;28;20113;-63
2022/03/13 06:17:27;;;;;;;24.95;10.93;;;3.20;48.20;;;;;;5030456;28;20037;-63
2022/03/13 06:19:55;;;;;;;19.85;10.77;;;3.20;48.20;;;;;;5021139;28;20034;-63
2022/03/13 06:22:22;;;;;;;19.13;10.45;;;3.20;48.20;;;;;;5029790;28;20053;-63
2022/03/13 06:24:47;;;;;;;25.23;11.55;;;3.20;48.30;;;;;;5030760;28;20075;-63
2022/03/13 06:27:13;;;;;;;19.58;10.10;;;3.20;48.50;;;;;;5028780;28;20067;-62
2022/03/13 06:29:39;;;;;;;19.88;11.15;;;3.20;48.30;;;;;;5029023;28;21540;-63
2022/03/13 06:32:06;;;;;;;22.15;11.52;;;3.20;48.50;;;;;;5028854;28;20029;-62
2022/03/13 06:34:31;;;;;;;19.85;10.35;;;3.10;48.40;;;;;;5016946;28;20044;-63
2022/03/13 06:36:57;;;;;;;20.27;11.32;;;3.20;48.40;;;;;;5018347;28;20400;-64
2022/03/13 06:39:22;;;;;;;19.58;11.15;;;3.20;48.50;;;;;;5026696;28;20056;-64
2022/03/13 06:41:49;;;;;;;23.55;11.40;;;3.20;48.40;;;;;;5033324;28;20443;-64
2022/03/13 06:44:16;;;;;;;23.38;11.32;;;3.20;48.50;;;;;;5028543;28;20067;-64
2022/03/13 06:46:41;;;;;;;19.98;11.45;;;3.30;48.40;;;;;;5043529;28;20484;-64
2022/03/13 06:49:07;;;;;;;20.05;11.18;;;3.30;49.00;;;;;;5031023;28;20025;-64
2022/03/13 06:51:32;;;;;;;19.17;10.45;;;3.30;48.40;;;;;;5052520;28;20029;-64
2022/03/13 06:53:58;;;;;;;24.02;11.13;;;3.30;48.50;;;;;;5017796;28;20030;-64
2022/03/13 06:56:24;;;;;;;21.38;11.02;;;3.30;48.50;;;;;;5023631;28;20104;-64
2022/03/13 06:58:49;;;;;;;19.45;10.35;;;3.30;48.40;;;;;;5024129;28;20052;-64
2022/03/13 07:01:15;;;;;;;20.30;10.50;;;3.40;48.40;;;;;;5014724;28;20053;-64
2022/03/13 07:03:42;;;;;;;22.50;10.98;;;3.50;48.50;;;;;;5026981;28;20079;-64
2022/03/13 07:06:07;;;;;;;18.73;11.20;;;3.50;48.40;;;;;;5023181;28;20037;-64
2022/03/13 07:08:33;;;;;;;20.63;11.35;;;3.50;48.30;;;;;;5027836;28;20037;-64
2022/03/13 07:11:02;;;;;;;17.92;10.73;;;3.60;48.40;;;;;;5031771;28;20028;-64
2022/03/13 07:13:31;;;;;;;23.80;10.93;;;3.60;48.30;;;;;;5028364;28;20018;-64
2022/03/13 07:16:01;;;;;;;19.10;11.38;;;3.60;48.40;;;;;;5025233;28;20472;-64
2022/03/13 07:18:27;;;;;;;20.92;12.45;;;3.70;48.30;;;;;;5028050;28;20144;-64
2022/03/13 07:20:53;;;;;;;19.00;10.80;;;3.70;48.30;;;;;;5033593;28;20130;-63
2022/03/13 07:23:18;;;;;;;19.08;10.38;;;3.80;48.20;;;;;;5029137;28;20540;-67
2022/03/13 07:25:44;;;;;;;21.65;11.25;;;3.80;48.20;;;;;;5026978;28;20389;-63
2022/03/13 07:28:09;;;;;;;20.50;10.85;;;3.90;48.20;;;;;;5021952;28;20086;-63
2022/03/13 07:30:35;;;;;;;19.48;10.82;;;3.90;48.10;;;;;;5017483;28;20026;-63
2022/03/13 07:33:00;;;;;;;18.17;10.60;;;4.00;48.00;;;;;;5022209;28;20144;-64
2022/03/13 07:35:27;;;;;;;20.98;11.13;;;4.10;48.00;;;;;;5026178;28;20053;-63
2022/03/13 07:37:52;;;;;;;18.60;10.35;;;4.10;47.80;;;;;;5023474;28;20035;-63
2022/03/13 07:40:18;;;;;;;18.02;9.75;;;4.20;47.70;;;;;;5029815;28;20033;-64
2022/03/13 07:42:43;;;;;;;19.92;11.25;;;4.30;47.60;;;;;;5028797;28;20026;-64
2022/03/13 07:45:09;;;;;;;24.45;10.07;;;4.40;47.50;;;;;;5025568;28;20061;-64
2022/03/13 07:47:35;;;;;;;17.92;10.38;;;4.50;47.30;;;;;;5029655;28;20378;-64
2022/03/13 07:50:00;;;;;;;18.30;10.05;;;4.60;46.90;;;;;;5018575;28;20071;-63
2022/03/13 07:52:26;;;;;;;17.55;10.05;;;4.60;46.80;;;;;;5032544;28;20033;-64
2022/03/13 07:54:52;;;;;;;16.17;9.18;;;4.70;46.70;;;;;;5033318;28;20075;-63
2022/03/13 07:57:17;;;;;;;20.33;10.13;;;4.80;46.20;;;;;;5031313;28;20018;-64
2022/03/13 07:59:43;;;;;;;16.23;9.13;;;4.80;45.90;;;;;;5016217;28;20416;-63
2022/03/13 08:02:08;;;;;;;18.25;9.25;;;4.90;45.60;;;;;;5028020;28;20021;-64
2022/03/13 08:04:34;;;;;;;14.52;8.45;;;5.00;45.40;;;;;;5026480;28;20057;-64
2022/03/13 08:06:59;;;;;;;16.48;9.15;;;5.10;45.20;;;;;;5032502;28;20570;-64
2022/03/13 08:09:25;;;;;;;14.43;9.23;;;5.20;45.10;;;;;;5029646;28;20026;-64
2022/03/13 08:11:53;;;;;;;17.88;9.70;;;5.30;44.70;;;;;;5035128;28;20052;-64
2022/03/13 08:14:19;;;;;;;14.98;8.18;;;5.30;44.30;;;;;;5025642;28;20385;-64
2022/03/13 08:16:44;;;;;;;14.88;8.18;;;5.40;44.40;;;;;;5024466;28;20026;-64
2022/03/13 08:19:10;;;;;;;14.88;8.80;;;5.50;44.20;;;;;;5028136;28;20117;-63
2022/03/13 08:21:37;;;;;;;14.98;8.90;;;5.60;43.20;;;;;;5017270;28;20068;-63
2022/03/13 08:24:05;;;;;;;15.95;8.05;;;5.70;43.70;;;;;;5025804;28;20025;-63
2022/03/13 08:26:31;;;;;;;14.90;8.73;;;5.80;43.40;;;;;;5031928;28;20041;-63
2022/03/13 08:28:57;;;;;;;11.75;7.78;;;5.80;43.10;;;;;;5029498;28;20032;-63
2022/03/13 08:31:22;;;;;;;14.00;8.07;;;5.90;42.40;;;;;;5014064;28;20034;-63
2022/03/13 08:33:48;;;;;;;16.33;8.85;;;6.00;42.90;;;;;;5021109;28;20117;-64
2022/03/13 08:36:14;;;;;;;14.30;8.10;;;6.10;43.00;;;;;;5020492;28;20586;-63
2022/03/13 08:38:39;;;;;;;12.60;7.97;;;6.10;42.30;;;;;;5025358;28;20021;-64
2022/03/13 08:41:05;;;;;;;13.85;8.10;;;6.10;42.50;;;;;;5024357;28;20072;-64
2022/03/13 08:43:30;;;;;;;14.13;8.90;;;6.30;42.60;;;;;;5017226;28;20028;-64
2022/03/13 08:45:56;;;;;;;12.88;7.55;;;6.30;42.50;;;;;;5022941;28;20120;-64
2022/03/13 08:48:21;;;;;;;13.48;7.78;;;6.40;42.50;;;;;;5021940;28;20487;-64
2022/03/13 08:50:47;;;;;;;16.23;8.32;;;6.40;42.40;;;;;;5038642;28;20021;-63
2022/03/13 08:53:12;;;;;;;18.27;8.65;;;6.50;42.50;;;;;;5022773;28;20477;-63
2022/03/13 08:55:38;;;;;;;13.02;8.45;;;6.60;42.30;;;;;;5032005;28;20021;-63
2022/03/13 08:58:03;;;;;;;13.07;7.68;;;6.70;42.20;;;;;;5026847;28;20022;-63
2022/03/13 09:00:29;;;;;;;17.85;8.10;;;6.80;42.00;;;;;;5029199;28;20117;-64
2022/03/13 09:02:54;;;;;;;14.65;8.07;;;6.90;42.00;;;;;;5025138;28;20033;-63
2022/03/13 09:05:21;;;;;;;14.75;9.23;;;6.90;41.30;;;;;;5012631;28;20060;-63
2022/03/13 09:07:47;;;;;;;15.88;7.93;;;6.90;40.80;;;;;;5020279;28;20133;-64
2022/03/13 09:10:13;;;;;;;14.88;8.38;;;7.10;41.50;;;;;;5012360;28;20026;-64
2022/03/13 09:12:39;;;;;;;15.35;7.80;;;7.10;42.10;;;;;;5023673;28;20033;-63
2022/03/13 09:15:05;;;;;;;13.93;8.18;;;7.20;41.50;;;;;;5021796;28;20363;-64
2022/03/13 09:17:31;;;;;;;14.98;8.35;;;7.30;41.20;;;;;;5022808;28;20037;-65
2022/03/13 09:19:58;;;;;;;13.77;7.10;;;7.40;41.20;;;;;;5030560;28;20029;-65
2022/03/13 09:22:27;;;;;;;13.25;8.05;;;7.50;41.40;;;;;;5028594;28;20040;-64
2022/03/13 09:24:57;;;;;;;13.90;7.70;;;7.60;40.90;;;;;;5024124;28;20396;-64
2022/03/13 09:27:26;;;;;;;14.25;7.55;;;7.70;40.60;;;;;;5015907;28;20396;-64
2022/03/13 09:29:52;;;;;;;13.50;8.30;;;7.80;40.60;;;;;;5030966;28;20034;-64
2022/03/13 09:32:17;;;;;;;12.10;7.50;;;7.90;40.00;;;;;;5028438;28;20025;-64
2022/03/13 09:34:43;;;;;;;11.43;7.70;;;7.90;39.30;;;;;;5030096;28;20107;-65
2022/03/13 09:37:08;;;;;;;14.05;7.57;;;8.00;39.70;;;;;;5031006;28;20032;-64
2022/03/13 09:39:34;;;;;;;12.57;7.63;;;8.10;40.20;;;;;;5029154;28;20025;-64
2022/03/13 09:41:59;;;;;;;10.80;7.25;;;8.20;40.70;;;;;;5020549;28;20087;-64
2022/03/13 09:44:25;;;;;;;12.60;7.50;;;8.30;40.00;;;;;;5014358;28;20494;-64
2022/03/13 09:46:50;;;;;;;11.13;7.68;;;8.40;39.40;;;;;;5023125;28;20136;-64
2022/03/13 09:49:17;;;;;;;13.05;7.32;;;8.50;39.30;;;;;;5023827;28;20519;-64
2022/03/13 09:51:43;;;;;;;11.68;7.18;;;8.50;38.90;;;;;;5031532;28;20029;-65
2022/03/13 09:54:09;;;;;;;15.20;7.03;;;8.60;38.60;;;;;;5030312;28;20025;-64
2022/03/13 09:56:35;;;;;;;11.68;6.78;;;8.70;38.60;;;;;;5030208;28;20040;-64
2022/03/13 09:59:01;;;;;;;14.27;6.63;;;8.80;38.60;;;;;;5030249;28;20029;-64
2022/03/13 10:01:27;;;;;;;10.82;6.20;;;8.90;37.90;;;;;;5030548;28;20365;-64
2022/03/13 10:03:54;;;;;;;11.27;6.18;;;8.90;37.40;;;;;;5029352;28;20057;-64
2022/03/13 10:06:19;;;;;;;12.77;7.45;;;9.00;36.90;;;;;;5020591;28;20038;-64
2022/03/13 10:08:45;;;;;;;9.52;6.57;;;9.20;36.70;;;;;;5024504;28;20108;-64
2022/03/13 10:11:11;;;;;;;10.48;6.32;;;9.20;35.80;;;;;;5030009;28;20033;-64
2022/03/13 10:13:49;;;;;;;10.85;7.30;;;9.30;35.60;;;;;;5021926;28;20037;-64
2022/03/13 10:16:19;;;;;;;12.90;8.10;;;9.40;34.80;;;;;;5031352;28;20112;-64
2022/03/13 10:18:44;;;;;;;10.02;6.35;;;9.40;35.40;;;;;;5028815;28;20088;-63
2022/03/13 10:21:12;;;;;;;10.13;6.10;;;9.50;34.90;;;;;;5010499;28;20029;-63
2022/03/13 10:23:39;;;;;;;12.38;5.88;;;9.50;34.60;;;;;;5018048;28;20030;-63
2022/03/13 10:26:05;;;;;;;10.60;6.60;;;9.60;35.20;;;;;;5011115;28;20362;-63
2022/03/13 10:28:33;;;;;;;12.15;5.88;;;9.70;35.40;;;;;;5012426;28;20034;-64
2022/03/13 10:30:59;;;;;;;9.38;5.82;;;9.80;35.10;;;;;;5012025;28;20098;-64
2022/03/13 10:33:48;;;;;;;10.38;5.95;;;9.90;35.60;;;;;;5028807;28;20029;-64
2022/03/13 10:36:16;;;;;;;11.77;6.75;;;10.00;35.00;;;;;;5050519;28;20497;-63
2022/03/13 10:38:44;;;;;;;12.35;5.85;;;10.10;35.10;;;;;;5036430;28;20037;-64
2022/03/13 10:41:12;;;;;;;11.10;5.68;;;10.20;34.70;;;;;;5030685;28;20052;-63
2022/03/13 10:43:51;;;;;;;10.27;5.38;;;10.30;34.20;;;;;;5029493;28;20515;-63
2022/03/13 10:46:29;;;;;;;12.13;5.82;;;10.40;34.40;;;;;;5030890;28;20053;-64
2022/03/13 10:48:56;;;;;;;8.80;5.32;;;10.50;34.40;;;;;;5029939;28;20037;-64
2022/03/13 10:51:45;;;;;;;9.40;5.47;;;10.50;34.00;;;;;;5030790;28;20021;-64
2022/03/13 10:54:31;;;;;;;8.40;5.05;;;10.70;34.30;;;;;;5029620;28;20045;-63
2022/03/13 10:57:23;;;;;;;10.68;5.18;;;10.80;34.20;;;;;;5029579;28;20033;-64
2022/03/13 11:00:10;;;;;;;10.52;6.18;;;10.90;33.90;;;;;;5028845;28;20041;-65
2022/03/13 11:02:36;;;;;;;9.18;5.68;;;11.00;33.70;;;;;;5013656;28;20095;-64
2022/03/13 11:05:02;;;;;;;8.70;5.97;;;11.10;34.00;;;;;;5030818;28;20489;-64
2022/03/13 11:07:27;;;;;;;10.02;5.68;;;11.20;33.60;;;;;;5029289;28;20131;-64
2022/03/13 11:09:54;;;;;;;9.35;6.10;;;11.20;33.00;;;;;;5030965;28;20440;-64
2022/03/13 11:12:21;;;;;;;10.40;5.65;;;11.30;33.00;;;;;;5028780;28;20030;-64
2022/03/13 11:14:52;;;;;;;9.40;6.55;;;11.30;33.60;;;;;;5029781;28;20026;-63
2022/03/13 11:17:20;;;;;;;8.57;5.43;;;11.40;33.10;;;;;;5027578;28;20448;-64
2022/03/13 11:19:50;;;;;;;10.13;5.40;;;11.40;33.20;;;;;;5027837;28;20083;-64
2022/03/13 11:22:20;;;;;;;10.65;5.70;;;11.50;32.90;;;;;;5029155;28;20543;-64
2022/03/13 11:24:47;;;;;;;10.05;5.60;;;11.50;32.60;;;;;;5020949;28;20033;-64
2022/03/13 11:27:13;;;;;;;8.52;5.72;;;11.50;32.30;;;;;;5026054;28;20041;-64
2022/03/13 11:29:47;;;;;;;8.18;5.20;;;11.60;32.40;;;;;;5029516;28;20022;-64
2022/03/13 11:32:27;;;;;;;7.82;5.10;;;11.60;32.20;;;;;;5013669;28;20591;-64
2022/03/13 11:35:11;;;;;;;7.53;5.10;;;11.70;32.10;;;;;;5014140;28;20034;-63
2022/03/13 11:37:39;;;;;;;8.10;5.23;;;11.80;32.10;;;;;;5024507;28;20062;-64
2022/03/13 11:40:07;;;;;;;7.93;5.15;;;11.80;32.40;;;;;;5025248;28;20029;-64
2022/03/13 11:42:50;;;;;;;11.05;6.75;;;11.90;32.60;;;;;;5016228;28;20105;-64
2022/03/13 11:45:30;;;;;;;9.23;5.40;;;12.00;32.20;;;;;;5034228;28;20382;-64
2022/03/13 11:48:21;;;;;;;10.30;5.82;;;12.10;31.80;;;;;;5028589;28;20108;-64
2022/03/13 11:50:58;;;;;;;9.55;5.63;;;12.00;31.70;;;;;;5026992;28;20425;-64
2022/03/13 11:53:40;;;;;;;9.02;5.85;;;12.10;32.10;;;;;;5013136;28;20030;-64
2022/03/13 11:56:06;;;;;;;7.90;5.40;;;12.10;31.90;;;;;;5014032;28;20030;-64
2022/03/13 11:58:40;;;;;;;10.13;5.82;;;12.20;31.80;;;;;;5024769;28;20037;-65
2022/03/13 12:01:07;;;;;;;8.65;5.35;;;12.20;31.90;;;;;;5033729;28;20025;-64
2022/03/13 12:03:33;;;;;;;10.02;6.28;;;12.20;32.00;;;;;;5031135;28;20045;-64
2022/03/13 12:05:59;;;;;;;11.18;6.38;;;12.20;32.20;;;;;;5033779;28;20033;-64
2022/03/13 12:08:45;;;;;;;9.60;5.60;;;12.30;31.90;;;;;;5031357;28;20099;-64
2022/03/13 12:11:39;;;;;;;11.63;6.70;;;12.30;31.90;;;;;;5029310;28;20416;-63
2022/03/13 12:14:13;;;;;;;11.63;6.28;;;12.40;31.40;;;;;;5028273;28;20045;-64
2022/03/13 12:16:40;;;;;;;10.40;7.10;;;12.40;32.00;;;;;;5026857;28;20029;-64
2022/03/13 12:19:07;;;;;;;10.80;6.70;;;12.40;32.40;;;;;;5028097;28;20091;-64
2022/03/13 12:21:33;;;;;;;11.18;6.07;;;12.50;32.70;;;;;;5019485;28;20029;-64
2022/03/13 12:24:17;;;;;;;11.18;6.93;;;12.50;32.00;;;;;;5026727;28;20397;-64
2022/03/13 12:26:44;;;;;;;10.02;6.50;;;12.50;32.40;;;;;;5033008;28;20029;-64
2022/03/13 12:29:18;;;;;;;9.35;6.30;;;12.50;32.40;;;;;;5032223;28;20055;-64
2022/03/13 12:31:53;;;;;;;8.93;6.15;;;12.60;32.40;;;;;;5032184;28;20033;-64
2022/03/13 12:34:26;;;;;;;11.38;6.53;;;12.60;32.10;;;;;;5014423;28;20034;-63
2022/03/13 12:36:53;;;;;;;9.35;6.32;;;12.60;32.10;;;;;;5021917;28;20057;-64
2022/03/13 12:39:19;;;;;;;10.68;6.78;;;12.60;32.40;;;;;;5015539;28;20551;-64
2022/03/13 12:41:54;;;;;;;9.18;6.43;;;12.70;32.40;;;;;;5013191;28;20030;-64
2022/03/13 12:44:21;;;;;;;12.05;6.97;;;12.70;32.50;;;;;;5028719;28;20083;-64